Terminal Aerodrome Forecast
Issued by NWS Omaha/Valley, NE

Home | Current Version | Previous Version | Graphics & Text | Print | Product List | Glossary On
Versions: 1 2 3 4 5 6 7 8 9 10 11 12 13 14
000
FTUS43 KOAX 212321
TAFOFK
TAF
KOFK 212321Z 2200/2224 VRB06KT P6SM SCT120
      TEMPO 2201/2203 4SM TSRA OVC040CB
     FM220300 34006KT P6SM SCT120=

USA.gov is the U.S. government's official web portal to all federal, state and local government web resources and services.